Taylorsport, Kentucky
Current Conditions -  °F | °C
As of 10:52 PM on Sunday 25 Jan 2015 (Local Time) from KCVG Reporting Station
Light Snow Light Snow  
Wind Chill: 24°   Ceiling: 500
Heat Index: 35°   Visibility: 2mi
Dew Point: 32°   Wind: 18mph
Humidity: 89%   Direction: 10°N
Pressure: 29.68"   Gusts: NA
Location:  39.0882°N, 84.7043°W
Report Text: KCVG 260352Z 01016KT 2SM -SN BR OVC005 02/00 A2968 RMK AO2 SFC VIS 3 RAE48SNB48 SLP054 P0005 T00170000
Loading
Personal Weather Stations






























Interactive Weather Map New forecast layout! Learn more

10-Day Weather Forecast

Advertisements
Track Severe Weather on mobile